createdAt,value
2022-11-30T00:02:44.779Z,30.87
2022-11-30T00:06:50.895Z,30.67
2022-11-30T00:10:55.857Z,32.00
2022-11-30T00:15:00.779Z,32.80
2022-11-30T00:19:05.712Z,30.47
2022-11-30T00:23:10.560Z,31.30
2022-11-30T00:27:15.471Z,30.90
2022-11-30T00:31:21.197Z,31.80
2022-11-30T00:35:26.338Z,31.33
2022-11-30T00:39:35.481Z,30.87
2022-11-30T00:43:40.859Z,32.43
2022-11-30T00:47:45.788Z,31.30
2022-11-30T00:51:50.890Z,31.43
2022-11-30T00:55:55.833Z,33.30
2022-11-30T01:00:00.692Z,32.10
2022-11-30T01:04:06.254Z,32.43
2022-11-30T01:08:12.413Z,33.67
2022-11-30T01:12:17.306Z,29.77
2022-11-30T01:16:30.155Z,32.63
2022-11-30T01:20:35.378Z,29.70
2022-11-30T01:24:40.248Z,31.30
2022-11-30T01:28:50.405Z,32.50
2022-11-30T01:32:55.343Z,28.77
2022-11-30T01:37:00.355Z,32.73
2022-11-30T01:41:07.531Z,32.80
2022-11-30T01:45:13.744Z,30.50
2022-11-30T01:49:48.486Z,32.33
2022-11-30T01:53:53.410Z,31.77
2022-11-30T01:58:06.193Z,31.80
2022-11-30T02:02:11.265Z,31.70
2022-11-30T02:06:16.368Z,31.13
2022-11-30T02:10:32.527Z,34.17
2022-11-30T02:14:51.461Z,29.70
2022-11-30T02:19:25.153Z,32.00
2022-11-30T02:24:00.829Z,30.20
2022-11-30T02:28:31.296Z,33.53
2022-11-30T02:32:50.658Z,33.03
2022-11-30T02:36:57.485Z,33.07
2022-11-30T02:41:03.793Z,31.67
2022-11-30T02:45:09.891Z,33.00
2022-11-30T02:49:25.162Z,32.07
2022-11-30T02:53:30.638Z,33.10
2022-11-30T02:57:36.188Z,31.70
2022-11-30T03:01:42.511Z,33.60
2022-11-30T03:05:47.554Z,32.50
2022-11-30T03:09:52.478Z,32.10
2022-11-30T03:13:57.497Z,32.83
2022-11-30T03:18:06.569Z,33.97
2022-11-30T03:22:11.521Z,32.00
2022-11-30T03:26:16.526Z,31.53
2022-11-30T03:30:21.623Z,32.17
2022-11-30T03:34:27.689Z,35.10
2022-11-30T03:38:33.049Z,33.97
2022-11-30T03:42:38.060Z,32.00
2022-11-30T03:46:43.011Z,33.73
2022-11-30T03:50:50.037Z,35.80
2022-11-30T03:54:54.973Z,33.30
2022-11-30T03:58:59.830Z,34.47
2022-11-30T04:03:05.298Z,34.73
2022-11-30T04:07:10.203Z,35.50
2022-11-30T04:11:15.516Z,35.20
2022-11-30T04:15:20.407Z,34.03
2022-11-30T04:19:25.321Z,34.53
2022-11-30T04:23:36.384Z,36.73
2022-11-30T04:27:41.330Z,34.50
2022-11-30T04:31:46.307Z,34.87
2022-11-30T04:35:58.405Z,35.07
2022-11-30T04:40:04.458Z,34.90
2022-11-30T04:44:10.260Z,35.03
2022-11-30T04:48:17.197Z,35.27
2022-11-30T04:52:22.075Z,33.77
2022-11-30T04:56:27.022Z,34.07
2022-11-30T05:00:32.291Z,34.67
2022-11-30T05:04:37.272Z,37.95
2022-11-30T05:08:42.163Z,36.70
2022-11-30T05:12:47.097Z,34.50
2022-11-30T05:16:52.112Z,36.90
2022-11-30T05:20:57.061Z,37.03
2022-11-30T05:25:02.704Z,36.00
2022-11-30T05:29:07.727Z,35.60
2022-11-30T05:33:13.031Z,34.97
2022-11-30T05:37:18.410Z,37.20
2022-11-30T05:41:23.310Z,34.10
2022-11-30T05:45:29.010Z,38.15
2022-11-30T05:49:33.874Z,35.50
2022-11-30T05:53:39.192Z,34.77
2022-11-30T05:57:44.172Z,47.80
2022-11-30T06:01:52.018Z,38.33
2022-11-30T06:05:57.309Z,38.60
2022-11-30T06:10:02.258Z,36.47
2022-11-30T06:14:07.638Z,36.97
2022-11-30T06:18:14.112Z,37.50
2022-11-30T06:22:18.943Z,35.77
2022-11-30T06:26:23.968Z,36.17
2022-11-30T06:30:28.851Z,37.53
2022-11-30T06:34:33.896Z,37.40
2022-11-30T06:38:39.027Z,35.87
2022-11-30T06:42:43.901Z,35.23
2022-11-30T06:46:48.893Z,36.30
2022-11-30T06:50:53.739Z,36.43
2022-11-30T06:54:58.622Z,39.10
2022-11-30T06:59:03.905Z,36.00
2022-11-30T07:03:11.190Z,35.80
2022-11-30T07:07:16.634Z,35.70
2022-11-30T07:11:21.605Z,35.77
2022-11-30T07:15:26.479Z,36.33
2022-11-30T07:19:34.209Z,37.70
2022-11-30T07:23:57.529Z,36.37
2022-11-30T07:28:02.414Z,35.63
2022-11-30T07:32:07.453Z,34.87
2022-11-30T07:36:12.584Z,37.83
2022-11-30T07:40:17.533Z,35.90
2022-11-30T07:44:22.570Z,34.57
2022-11-30T07:48:27.750Z,37.30
2022-11-30T07:52:32.748Z,36.13
2022-11-30T07:56:37.728Z,34.30
2022-11-30T08:00:42.725Z,34.47
2022-11-30T08:04:47.978Z,36.70
2022-11-30T08:08:57.112Z,37.30
2022-11-30T08:13:02.158Z,33.53
2022-11-30T08:17:09.170Z,33.20
2022-11-30T08:21:18.009Z,33.30
2022-11-30T08:25:22.877Z,35.83
2022-11-30T08:29:27.782Z,35.37
2022-11-30T08:33:34.616Z,33.60
2022-11-30T08:37:39.542Z,34.20
2022-11-30T08:41:44.553Z,33.00
2022-11-30T08:45:54.253Z,34.30
2022-11-30T08:50:02.204Z,34.80
2022-11-30T08:54:07.096Z,34.37
2022-11-30T08:58:12.026Z,35.20
2022-11-30T09:02:19.558Z,32.70
2022-11-30T09:06:29.818Z,34.47
2022-11-30T09:10:34.762Z,35.30
2022-11-30T09:14:39.602Z,35.07
2022-11-30T09:18:44.600Z,34.03
2022-11-30T09:22:49.528Z,33.30
2022-11-30T09:26:57.824Z,30.03
2022-11-30T09:31:09.020Z,33.47
2022-11-30T09:35:14.813Z,30.83
2022-11-30T09:39:20.161Z,32.00
2022-11-30T09:43:35.698Z,30.53
2022-11-30T09:47:40.602Z,29.70
2022-11-30T09:51:48.328Z,30.20
2022-11-30T09:55:55.107Z,30.20
2022-11-30T10:00:04.820Z,29.33
2022-11-30T10:04:25.009Z,31.37
2022-11-30T10:09:16.536Z,28.40
2022-11-30T10:13:45.754Z,27.93
2022-11-30T10:17:57.018Z,28.27
2022-11-30T10:22:35.095Z,27.03
2022-11-30T10:26:54.326Z,27.00
2022-11-30T10:31:01.752Z,27.83
2022-11-30T10:35:40.728Z,26.70
2022-11-30T10:40:06.185Z,26.07
2022-11-30T10:44:19.394Z,25.20
2022-11-30T10:48:54.536Z,25.97
2022-11-30T10:53:00.983Z,26.57
2022-11-30T10:57:07.472Z,28.00
2022-11-30T11:01:34.352Z,26.30
2022-11-30T11:05:39.651Z,24.97
2022-11-30T11:09:52.472Z,25.83
2022-11-30T11:14:22.016Z,27.43
2022-11-30T11:18:30.241Z,25.10
2022-11-30T11:22:35.963Z,25.60
2022-11-30T11:26:52.456Z,27.17
2022-11-30T11:30:58.358Z,25.10
2022-11-30T11:35:04.333Z,25.13
2022-11-30T11:39:26.186Z,25.90
2022-11-30T11:43:34.279Z,27.20
2022-11-30T11:47:41.259Z,24.80
2022-11-30T11:51:46.621Z,25.30
2022-11-30T11:55:58.891Z,26.37
2022-11-30T12:00:16.525Z,28.00
2022-11-30T12:04:54.549Z,27.20
2022-11-30T12:09:13.863Z,27.10
2022-11-30T12:13:26.327Z,26.10
2022-11-30T12:17:57.732Z,25.50
2022-11-30T12:22:28.856Z,26.53
2022-11-30T12:26:42.957Z,27.00
2022-11-30T12:30:59.072Z,27.63
2022-11-30T12:35:27.561Z,26.27
2022-11-30T12:39:54.058Z,26.63
2022-11-30T12:44:28.900Z,28.27
2022-11-30T12:48:52.642Z,27.93
2022-11-30T12:53:24.123Z,26.57
2022-11-30T12:57:43.152Z,27.80
2022-11-30T13:02:21.270Z,26.30
2022-11-30T13:06:37.918Z,26.83
2022-11-30T13:10:56.165Z,26.03
2022-11-30T13:15:15.276Z,27.07
2022-11-30T13:19:48.128Z,28.90
2022-11-30T13:24:04.469Z,27.37
2022-11-30T13:28:20.873Z,28.03
2022-11-30T13:36:51.867Z,34.80
2022-11-30T13:41:03.362Z,32.57
2022-11-30T13:45:14.151Z,26.27
2022-11-30T13:49:22.465Z,33.30
2022-11-30T13:53:34.265Z,33.13
2022-11-30T13:57:39.047Z,28.50
2022-11-30T14:01:44.033Z,27.00
2022-11-30T14:06:05.260Z,26.93
2022-11-30T14:10:32.843Z,29.73
2022-11-30T14:14:47.975Z,27.97
2022-11-30T14:18:53.354Z,29.97
2022-11-30T14:23:06.776Z,29.80
2022-11-30T14:27:22.718Z,30.77
2022-11-30T14:31:48.383Z,29.63
2022-11-30T14:35:58.001Z,31.70
2022-11-30T14:40:07.521Z,30.67
2022-11-30T14:44:15.608Z,32.77
2022-11-30T14:48:21.979Z,32.73
2022-11-30T14:52:46.348Z,32.93
2022-11-30T14:56:59.761Z,32.80
2022-11-30T15:01:40.980Z,32.23
2022-11-30T15:05:46.074Z,31.13
2022-11-30T15:10:16.460Z,34.63
2022-11-30T15:14:21.564Z,31.20
2022-11-30T15:18:26.979Z,32.50
2022-11-30T15:22:35.268Z,32.30
2022-11-30T15:27:05.504Z,34.53
2022-11-30T15:31:16.131Z,32.73
2022-11-30T15:35:30.757Z,32.77
2022-11-30T15:39:52.553Z,33.37
2022-11-30T15:43:58.096Z,35.30
2022-11-30T15:48:05.540Z,32.03
2022-11-30T15:52:13.287Z,34.97
2022-11-30T15:56:29.103Z,36.73
2022-11-30T16:00:34.211Z,34.27
2022-11-30T16:04:57.602Z,34.60
2022-11-30T16:09:21.628Z,34.73
2022-11-30T16:13:30.390Z,34.40
2022-11-30T16:17:35.557Z,38.80
2022-11-30T16:21:40.904Z,37.10
2022-11-30T16:25:47.892Z,37.60
2022-11-30T16:29:53.135Z,36.57
2022-11-30T16:33:58.075Z,38.03
2022-11-30T16:38:03.516Z,55.42
2022-11-30T16:42:12.616Z,42.53
2022-11-30T16:46:29.537Z,40.50
2022-11-30T16:50:35.005Z,37.40
2022-11-30T16:54:39.867Z,39.23
2022-11-30T16:58:45.006Z,40.33
2022-11-30T17:02:59.885Z,38.47
2022-11-30T17:07:04.741Z,39.10
2022-11-30T17:11:29.346Z,39.40
2022-11-30T17:15:34.298Z,41.43
2022-11-30T17:19:39.269Z,40.70
2022-11-30T17:23:45.091Z,42.30
2022-11-30T17:27:51.220Z,36.67
2022-11-30T17:31:56.105Z,42.03
2022-11-30T17:36:05.413Z,37.47
2022-11-30T17:40:15.470Z,40.50
2022-11-30T17:44:20.353Z,40.47
2022-11-30T17:48:25.345Z,40.37
2022-11-30T17:52:30.393Z,39.80
2022-11-30T17:56:35.855Z,39.20
2022-11-30T18:00:40.802Z,38.07
2022-11-30T18:04:45.998Z,37.00
2022-11-30T18:08:51.725Z,37.90
2022-11-30T18:12:56.596Z,37.93
2022-11-30T18:17:01.618Z,39.87
2022-11-30T18:21:09.258Z,39.97
2022-11-30T18:25:15.444Z,37.67
2022-11-30T18:29:20.566Z,38.37
2022-11-30T18:33:25.844Z,36.90
2022-11-30T18:37:33.433Z,38.30
2022-11-30T18:41:38.440Z,37.10
2022-11-30T18:45:43.356Z,38.97
2022-11-30T18:49:48.255Z,38.13
2022-11-30T18:53:59.799Z,41.33
2022-11-30T18:58:04.807Z,38.60
2022-11-30T19:02:10.155Z,41.17
2022-11-30T19:06:15.443Z,42.27
2022-11-30T19:10:20.358Z,43.63
2022-11-30T19:14:25.247Z,39.73
2022-11-30T19:18:30.136Z,41.57
2022-11-30T19:22:35.079Z,39.20
2022-11-30T19:26:40.255Z,41.40
2022-11-30T19:30:45.258Z,40.00
2022-11-30T19:34:50.585Z,39.27
2022-11-30T19:38:58.076Z,38.17
2022-11-30T19:43:02.931Z,38.80
2022-11-30T19:47:07.835Z,39.47
2022-11-30T19:51:18.422Z,39.07
2022-11-30T19:55:23.578Z,40.60
2022-11-30T19:59:28.397Z,37.97
2022-11-30T20:03:37.070Z,36.70
2022-11-30T20:07:42.235Z,36.43
2022-11-30T20:11:47.283Z,38.50
2022-11-30T20:15:52.315Z,37.57
2022-11-30T20:19:57.331Z,35.77
2022-11-30T20:24:07.251Z,38.50
2022-11-30T20:28:12.736Z,36.07
2022-11-30T20:32:19.337Z,38.63
2022-11-30T20:36:24.341Z,35.70
2022-11-30T20:40:29.205Z,35.27
2022-11-30T20:44:34.108Z,38.43
2022-11-30T20:48:39.068Z,37.77
2022-11-30T20:52:43.966Z,37.60
2022-11-30T20:56:51.363Z,34.67
2022-11-30T21:00:56.609Z,36.13
2022-11-30T21:05:01.579Z,37.70
2022-11-30T21:09:08.145Z,38.50
2022-11-30T21:13:13.469Z,37.10
2022-11-30T21:17:18.867Z,35.07
2022-11-30T21:21:26.113Z,36.60
2022-11-30T21:25:31.073Z,36.97
2022-11-30T21:29:36.330Z,37.90
2022-11-30T21:33:44.474Z,35.20
2022-11-30T21:37:53.374Z,37.67
2022-11-30T21:41:58.466Z,38.03
2022-11-30T21:46:16.338Z,36.40
2022-11-30T21:50:26.919Z,37.07
2022-11-30T21:54:32.145Z,34.93
2022-11-30T21:58:37.054Z,35.87
2022-11-30T22:02:42.081Z,35.60
2022-11-30T22:06:46.934Z,35.87
2022-11-30T22:10:51.962Z,35.70
2022-11-30T22:14:56.817Z,37.47
2022-11-30T22:19:03.650Z,35.13
2022-11-30T22:23:08.571Z,35.60
2022-11-30T22:27:13.503Z,35.77
2022-11-30T22:31:21.241Z,35.30
2022-11-30T22:35:26.130Z,35.47
2022-11-30T22:39:31.014Z,33.17
2022-11-30T22:43:36.774Z,32.40
2022-11-30T22:47:41.697Z,34.43
2022-11-30T22:51:46.561Z,34.67
2022-11-30T22:55:51.613Z,35.00
2022-11-30T22:59:56.590Z,33.67
2022-11-30T23:04:09.452Z,37.43
2022-11-30T23:08:14.461Z,35.20
2022-11-30T23:12:42.998Z,34.07
2022-11-30T23:16:45.116Z,35.07
2022-11-30T23:20:50.308Z,34.23
2022-11-30T23:24:55.918Z,35.73
2022-11-30T23:29:04.602Z,34.87
2022-11-30T23:33:10.281Z,33.93
2022-11-30T23:37:15.157Z,35.20
2022-11-30T23:41:20.255Z,33.90
2022-11-30T23:45:25.125Z,32.00
2022-11-30T23:49:30.032Z,34.37
2022-11-30T23:53:35.097Z,34.73
2022-11-30T23:57:40.034Z,34.97
